KLXV

Lake County Airport

Leadville, Colorado, USA
METAR KLXV 212153Z AUTO 32008G22KT 260V010 10SM FEW100 22/M06 A3042 RMK AO2 PK WND 32027/2134 SLP128 T02171056
Observed Flight Rules
Jun-21 @ 21:53 UTC (12 minutes ago) Visual Flight Rules
Wind Visibility Clouds
320° at 8 knots
 Gusting to 22 knots
10 miles
  • Few at 10,000' AGL
Temperatures Readings
Current 22°C / 72°F
Dewpoint -6°C / 21°F
Humidity 15%
Altimeter 30.42" Hg
Pressure 1012.8 hPa
Elevation 3028
METAR KLXV 212153Z AUTO 32008G22KT 260V010 10SM FEW100 22/M06 A3042 RMK AO2 PK WND 32027/2134 SLP128 T02171056
Observed Flight Rules
Jun-21 @ 21:53 UTC
(12 minutes ago)
VFR
Wind Visibility
320° at 8 knots
 Gusting to 22 knots
10 miles
Clouds
  • Few at 10,000' AGL
Temperature Dewpoint
22°C / 72°F -6°C / 21°F
Humidity Altimeter Pressure
15% 30.42" Hg 1012.8 hPa